createdAt,value
2023-04-18T00:01:52.880Z,5.70
2023-04-18T00:04:20.805Z,6.15
2023-04-18T00:06:49.887Z,5.80
2023-04-18T00:09:17.266Z,5.57
2023-04-18T00:11:45.245Z,6.30
2023-04-18T00:14:13.550Z,6.65
2023-04-18T00:16:41.161Z,6.32
2023-04-18T00:19:08.768Z,6.60
2023-04-18T00:21:37.273Z,6.57
2023-04-18T00:24:04.703Z,6.95
2023-04-18T00:26:32.187Z,6.65
2023-04-18T00:28:59.584Z,6.53
2023-04-18T00:31:27.022Z,5.40
2023-04-18T00:33:54.472Z,7.00
2023-04-18T00:36:24.423Z,6.22
2023-04-18T00:38:51.880Z,6.80
2023-04-18T00:41:20.037Z,6.63
2023-04-18T00:43:47.393Z,7.35
2023-04-18T00:46:14.760Z,7.13
2023-04-18T00:48:42.153Z,7.70
2023-04-18T00:51:10.460Z,7.15
2023-04-18T00:53:38.277Z,7.35
2023-04-18T00:56:06.121Z,6.90
2023-04-18T00:58:33.567Z,6.78
2023-04-18T01:01:01.035Z,7.13
2023-04-18T01:03:28.563Z,7.32
2023-04-18T01:05:57.428Z,7.28
2023-04-18T01:08:26.145Z,7.25
2023-04-18T01:10:53.465Z,7.30
2023-04-18T01:13:21.412Z,7.35
2023-04-18T01:15:49.654Z,7.88
2023-04-18T01:18:17.387Z,7.32
2023-04-18T01:20:46.766Z,7.57
2023-04-18T01:23:14.959Z,7.85
2023-04-18T01:25:42.501Z,7.55
2023-04-18T01:28:10.286Z,8.75
2023-04-18T01:30:37.871Z,8.25
2023-04-18T01:33:05.983Z,7.82
2023-04-18T01:35:34.367Z,7.88
2023-04-18T01:38:01.903Z,7.43
2023-04-18T01:40:30.052Z,7.90
2023-04-18T01:42:57.568Z,7.55
2023-04-18T01:45:24.947Z,7.63
2023-04-18T01:47:52.384Z,7.60
2023-04-18T01:50:19.840Z,8.25
2023-04-18T01:52:47.313Z,7.57
2023-04-18T01:55:16.616Z,8.23
2023-04-18T01:57:44.101Z,8.88
2023-04-18T02:00:11.848Z,7.40
2023-04-18T02:02:42.765Z,7.53
2023-04-18T02:05:10.712Z,7.57
2023-04-18T02:07:41.187Z,8.13
2023-04-18T02:10:09.709Z,7.60
2023-04-18T02:12:37.830Z,7.93
2023-04-18T02:15:05.485Z,8.40
2023-04-18T02:17:36.669Z,7.97
2023-04-18T02:20:04.605Z,8.13
2023-04-18T02:22:32.246Z,8.23
2023-04-18T02:25:01.238Z,8.50
2023-04-18T02:27:28.555Z,7.88
2023-04-18T02:29:58.241Z,7.80
2023-04-18T02:32:26.007Z,7.68
2023-04-18T02:34:53.761Z,7.85
2023-04-18T02:37:21.079Z,8.30
2023-04-18T02:39:48.472Z,7.93
2023-04-18T02:42:16.314Z,8.60
2023-04-18T02:44:43.807Z,7.85
2023-04-18T02:47:11.245Z,8.05
2023-04-18T02:49:42.087Z,8.85
2023-04-18T02:52:09.510Z,7.93
2023-04-18T02:54:36.814Z,9.20
2023-04-18T02:57:12.020Z,8.32
2023-04-18T02:59:48.323Z,8.30
2023-04-18T03:02:34.150Z,8.13
2023-04-18T03:05:11.808Z,8.45
2023-04-18T03:07:39.625Z,7.78
2023-04-18T03:10:07.289Z,8.40
2023-04-18T03:12:37.182Z,8.10
2023-04-18T03:15:05.162Z,9.35
2023-04-18T03:17:33.258Z,8.73
2023-04-18T03:20:00.880Z,8.30
2023-04-18T03:22:30.666Z,8.32
2023-04-18T03:25:00.653Z,8.27
2023-04-18T03:27:51.547Z,8.48
2023-04-18T03:30:21.343Z,7.93
2023-04-18T03:32:59.567Z,8.40
2023-04-18T03:35:27.283Z,7.90
2023-04-18T03:37:55.642Z,8.13
2023-04-18T03:40:26.463Z,9.30
2023-04-18T03:42:57.698Z,8.80
2023-04-18T03:45:25.185Z,9.00
2023-04-18T03:47:52.816Z,8.35
2023-04-18T03:50:22.158Z,9.00
2023-04-18T03:52:50.629Z,8.30
2023-04-18T03:55:19.671Z,8.80
2023-04-18T03:57:47.918Z,9.18
2023-04-18T04:00:22.979Z,9.52
2023-04-18T04:02:57.796Z,10.15
2023-04-18T04:05:25.587Z,8.77
2023-04-18T04:07:52.953Z,9.07
2023-04-18T04:10:20.702Z,10.27
2023-04-18T04:12:51.028Z,11.40
2023-04-18T04:15:19.169Z,11.68
2023-04-18T04:17:59.216Z,11.65
2023-04-18T04:20:26.712Z,10.13
2023-04-18T04:23:02.792Z,10.25
2023-04-18T04:25:35.308Z,9.68
2023-04-18T04:28:08.304Z,10.18
2023-04-18T04:30:46.794Z,9.52
2023-04-18T04:33:14.384Z,9.60
2023-04-18T04:35:52.794Z,9.00
2023-04-18T04:38:23.208Z,21.02
2023-04-18T04:40:52.916Z,10.02
2023-04-18T04:43:20.555Z,10.20
2023-04-18T04:45:52.709Z,9.48
2023-04-18T04:48:24.756Z,10.38
2023-04-18T04:50:54.359Z,10.20
2023-04-18T04:53:22.200Z,10.10
2023-04-18T04:55:49.699Z,10.02
2023-04-18T04:58:18.666Z,9.35
2023-04-18T05:01:00.819Z,10.75
2023-04-18T05:03:28.386Z,10.25
2023-04-18T05:05:55.994Z,9.75
2023-04-18T05:08:23.396Z,10.20
2023-04-18T05:10:51.064Z,9.57
2023-04-18T05:13:18.432Z,10.57
2023-04-18T05:15:45.773Z,9.95
2023-04-18T05:18:14.500Z,10.07
2023-04-18T05:20:42.019Z,10.30
2023-04-18T05:23:09.452Z,10.45
2023-04-18T05:25:37.429Z,10.70
2023-04-18T05:28:05.244Z,9.38
2023-04-18T05:30:32.775Z,10.88
2023-04-18T05:33:00.570Z,11.10
2023-04-18T05:35:28.026Z,11.23
2023-04-18T05:37:55.466Z,11.43
2023-04-18T05:40:22.851Z,10.65
2023-04-18T05:42:50.375Z,10.10
2023-04-18T05:45:17.843Z,10.20
2023-04-18T05:47:45.458Z,10.30
2023-04-18T05:50:12.928Z,10.68
2023-04-18T05:52:40.346Z,10.68
2023-04-18T05:55:08.832Z,11.00
2023-04-18T05:57:36.384Z,10.07
2023-04-18T06:00:07.854Z,10.18
2023-04-18T06:02:40.352Z,10.02
2023-04-18T06:05:08.730Z,10.35
2023-04-18T06:07:36.468Z,10.38
2023-04-18T06:10:05.610Z,11.15
2023-04-18T06:12:33.056Z,11.27
2023-04-18T06:15:03.151Z,10.27
2023-04-18T06:17:30.667Z,9.10
2023-04-18T06:19:58.401Z,9.52
2023-04-18T06:22:25.882Z,9.35
2023-04-18T06:24:55.329Z,10.38
2023-04-18T06:27:31.211Z,9.35
2023-04-18T06:29:59.808Z,9.40
2023-04-18T06:32:27.299Z,9.43
2023-04-18T06:34:54.774Z,10.57
2023-04-18T06:37:22.121Z,11.82
2023-04-18T06:39:49.586Z,11.98
2023-04-18T06:42:17.172Z,11.48
2023-04-18T06:44:45.241Z,11.70
2023-04-18T06:47:12.890Z,12.15
2023-04-18T06:49:40.594Z,13.00
2023-04-18T06:52:08.025Z,11.77
2023-04-18T06:54:35.429Z,12.73
2023-04-18T06:57:03.745Z,10.25
2023-04-18T06:59:31.082Z,10.52
2023-04-18T07:02:00.526Z,10.30
2023-04-18T07:04:28.097Z,10.05
2023-04-18T07:06:55.519Z,9.27
2023-04-18T07:09:23.040Z,10.20
2023-04-18T07:11:52.447Z,10.25
2023-04-18T07:14:22.219Z,9.77
2023-04-18T07:16:52.249Z,9.23
2023-04-18T07:19:19.681Z,6.20
2023-04-18T07:21:47.173Z,5.70
2023-04-18T07:24:14.809Z,5.32
2023-04-18T07:26:42.415Z,5.10
2023-04-18T07:29:10.034Z,4.30
2023-04-18T07:31:37.392Z,4.10
2023-04-18T07:34:04.877Z,4.28
2023-04-18T07:36:32.602Z,4.18
2023-04-18T07:39:00.038Z,3.50
2023-04-18T07:41:27.493Z,4.22
2023-04-18T07:43:54.980Z,3.22
2023-04-18T07:46:22.401Z,3.15
2023-04-18T07:48:49.967Z,3.30
2023-04-18T07:51:17.512Z,3.70
2023-04-18T07:53:44.949Z,3.88
2023-04-18T07:56:12.821Z,4.40
2023-04-18T07:58:40.152Z,3.78
2023-04-18T08:01:09.019Z,4.20
2023-04-18T08:03:36.606Z,3.80
2023-04-18T08:06:06.030Z,4.28
2023-04-18T08:09:03.930Z,4.25
2023-04-18T08:12:08.481Z,3.20
2023-04-18T08:15:47.397Z,3.97
2023-04-18T08:19:44.238Z,3.38
2023-04-18T08:41:06.200Z,3.45
2023-04-18T08:51:03.572Z,3.30
2023-04-18T09:25:24.833Z,3.30
2023-04-18T09:27:53.107Z,3.42
2023-04-18T09:30:40.606Z,25.17
2023-04-18T09:33:10.182Z,4.07
2023-04-18T09:35:38.287Z,4.95
2023-04-18T09:38:08.781Z,3.53
2023-04-18T09:40:36.251Z,13.50
2023-04-18T09:43:17.617Z,4.43
2023-04-18T09:45:45.170Z,3.85
2023-04-18T09:48:12.665Z,3.17
2023-04-18T09:50:40.864Z,3.33
2023-04-18T09:53:09.080Z,3.78
2023-04-18T09:55:37.415Z,3.10
2023-04-18T09:58:05.877Z,2.60
2023-04-18T10:00:34.136Z,3.17
2023-04-18T10:03:09.688Z,5.10
2023-04-18T10:05:39.650Z,2.92
2023-04-18T10:08:07.979Z,2.80
2023-04-18T10:10:37.930Z,2.80
2023-04-18T10:13:06.920Z,2.70
2023-04-18T10:15:34.315Z,2.88
2023-04-18T10:18:05.745Z,3.08
2023-04-18T10:20:35.331Z,3.22
2023-04-18T10:23:28.872Z,2.35
2023-04-18T10:25:56.372Z,2.60
2023-04-18T10:28:24.629Z,2.58
2023-04-18T10:30:53.481Z,3.42
2023-04-18T10:33:30.869Z,2.60
2023-04-18T10:35:59.582Z,2.75
2023-04-18T10:38:27.328Z,3.10
2023-04-18T10:41:13.156Z,3.20
2023-04-18T10:44:03.372Z,3.08
2023-04-18T10:46:32.808Z,3.08
2023-04-18T10:49:20.093Z,2.75
2023-04-18T10:51:48.444Z,2.95
2023-04-18T10:54:30.938Z,2.92
2023-04-18T10:57:03.157Z,2.70
2023-04-18T10:59:34.220Z,2.88
2023-04-18T11:02:07.510Z,3.22
2023-04-18T11:04:35.174Z,2.58
2023-04-18T11:07:03.161Z,2.40
2023-04-18T11:09:30.768Z,2.92
2023-04-18T11:12:06.264Z,3.60
2023-04-18T11:15:03.287Z,51.50
2023-04-18T11:17:34.754Z,2.80
2023-04-18T11:20:06.383Z,2.75
2023-04-18T11:22:33.837Z,2.65
2023-04-18T11:25:01.992Z,2.28
2023-04-18T11:27:32.382Z,2.40
2023-04-18T11:29:59.984Z,2.15
2023-04-18T11:32:27.594Z,2.53
2023-04-18T11:34:55.675Z,2.10
2023-04-18T11:37:23.334Z,2.28
2023-04-18T11:39:53.282Z,2.88
2023-04-18T11:42:26.764Z,2.17
2023-04-18T11:45:02.798Z,1.67
2023-04-18T11:47:33.943Z,1.80
2023-04-18T11:50:02.310Z,2.08
2023-04-18T11:52:31.831Z,2.10
2023-04-18T11:55:13.039Z,1.73
2023-04-18T11:57:40.889Z,1.60
2023-04-18T12:00:09.654Z,1.75
2023-04-18T12:02:44.534Z,1.27
2023-04-18T12:05:14.516Z,1.35
2023-04-18T12:07:43.323Z,1.73
2023-04-18T12:10:30.962Z,1.50
2023-04-18T12:12:58.914Z,1.40
2023-04-18T12:15:28.156Z,1.20
2023-04-18T12:18:00.414Z,1.30
2023-04-18T12:20:38.237Z,1.38
2023-04-18T12:23:09.087Z,1.27
2023-04-18T12:25:44.642Z,1.60
2023-04-18T12:28:17.070Z,1.48
2023-04-18T12:30:45.151Z,1.50
2023-04-18T12:33:12.530Z,1.10
2023-04-18T12:35:40.002Z,1.40
2023-04-18T12:38:07.276Z,1.33
2023-04-18T12:40:34.616Z,1.45
2023-04-18T12:43:03.564Z,1.15
2023-04-18T12:45:31.689Z,1.13
2023-04-18T12:47:59.158Z,0.95
2023-04-18T12:50:27.412Z,1.08
2023-04-18T12:52:55.930Z,1.15
2023-04-18T12:55:23.235Z,0.95
2023-04-18T12:57:54.526Z,2.08
2023-04-18T13:00:23.528Z,1.00
2023-04-18T13:02:52.777Z,7.85
2023-04-18T13:05:21.726Z,0.80
2023-04-18T13:07:49.786Z,1.13
2023-04-18T13:10:18.693Z,0.98
2023-04-18T13:12:46.391Z,1.17
2023-04-18T13:15:13.956Z,0.93
2023-04-18T13:17:41.290Z,1.05
2023-04-18T13:20:10.702Z,1.00
2023-04-18T13:22:39.696Z,0.95
2023-04-18T13:25:08.341Z,1.20
2023-04-18T13:27:36.237Z,1.00
2023-04-18T13:30:04.620Z,1.10
2023-04-18T13:32:32.342Z,1.15
2023-04-18T13:34:59.756Z,0.63
2023-04-18T13:37:27.210Z,1.10
2023-04-18T13:39:54.548Z,1.98
2023-04-18T13:42:21.874Z,1.00
2023-04-18T13:44:50.068Z,1.15
2023-04-18T13:47:17.522Z,1.02
2023-04-18T13:49:44.941Z,1.20
2023-04-18T13:52:12.456Z,1.25
2023-04-18T13:54:41.228Z,2.42
2023-04-18T13:57:11.821Z,1.40
2023-04-18T13:59:40.579Z,1.58
2023-04-18T14:02:11.503Z,1.50
2023-04-18T14:04:39.271Z,1.60
2023-04-18T14:07:07.907Z,1.60
2023-04-18T14:09:57.085Z,1.52
2023-04-18T14:12:27.324Z,1.75
2023-04-18T14:14:54.930Z,1.98
2023-04-18T14:17:24.302Z,1.70
2023-04-18T14:19:54.561Z,1.63
2023-04-18T14:22:28.898Z,1.73
2023-04-18T14:24:56.419Z,1.70
2023-04-18T14:27:26.095Z,1.42
2023-04-18T14:29:53.544Z,1.90
2023-04-18T14:32:21.178Z,1.55
2023-04-18T14:34:48.740Z,1.45
2023-04-18T14:37:18.123Z,1.38
2023-04-18T14:39:46.233Z,1.50
2023-04-18T14:42:14.354Z,2.33
2023-04-18T14:44:45.032Z,1.40
2023-04-18T14:47:12.437Z,1.40
2023-04-18T14:49:40.015Z,1.80
2023-04-18T14:52:07.459Z,1.20
2023-04-18T14:54:35.189Z,1.42
2023-04-18T14:57:08.737Z,1.48
2023-04-18T14:59:36.764Z,2.30
2023-04-18T15:02:05.001Z,1.80
2023-04-18T15:04:33.255Z,1.50
2023-04-18T15:07:01.859Z,1.23
2023-04-18T15:09:29.387Z,1.00
2023-04-18T15:12:01.094Z,4.40
2023-04-18T15:16:56.772Z,0.70
2023-04-18T15:19:24.304Z,0.90
2023-04-18T15:21:52.359Z,0.90
2023-04-18T15:24:20.225Z,0.70
2023-04-18T15:26:50.960Z,0.80
2023-04-18T15:29:19.464Z,0.80
2023-04-18T15:31:47.321Z,0.50
2023-04-18T15:34:15.152Z,0.52
2023-04-18T15:36:43.704Z,1.60
2023-04-18T15:39:11.145Z,0.80
2023-04-18T15:41:39.177Z,0.80
2023-04-18T15:44:08.047Z,0.70
2023-04-18T15:46:37.599Z,0.88
2023-04-18T15:49:06.538Z,2.80
2023-04-18T15:51:33.926Z,0.60
2023-04-18T15:54:02.672Z,0.70
2023-04-18T15:56:37.155Z,0.73
2023-04-18T15:59:06.766Z,0.80
2023-04-18T16:01:35.817Z,1.35
2023-04-18T16:04:03.514Z,0.90
2023-04-18T16:06:31.593Z,0.80
2023-04-18T16:08:59.123Z,1.00
2023-04-18T16:11:52.964Z,0.80
2023-04-18T16:14:27.527Z,0.90
2023-04-18T16:16:59.081Z,1.38
2023-04-18T16:19:26.695Z,0.98
2023-04-18T16:21:54.037Z,0.77
2023-04-18T16:24:21.948Z,0.90
2023-04-18T16:26:49.798Z,0.90
2023-04-18T16:29:17.130Z,0.90
2023-04-18T16:31:47.378Z,0.90
2023-04-18T16:34:15.814Z,0.80
2023-04-18T16:36:43.308Z,1.00
2023-04-18T16:39:10.954Z,1.58
2023-04-18T16:41:38.720Z,1.45
2023-04-18T16:44:06.175Z,5.47
2023-04-18T16:46:34.079Z,3.05
2023-04-18T16:49:01.585Z,1.23
2023-04-18T16:51:28.942Z,13.30
2023-04-18T16:53:56.500Z,3.20
2023-04-18T16:56:23.909Z,1.45
2023-04-18T16:58:52.169Z,1.63
2023-04-18T17:01:19.763Z,1.40
2023-04-18T17:03:47.244Z,1.60
2023-04-18T17:06:16.999Z,1.67
2023-04-18T17:08:44.363Z,1.50
2023-04-18T17:11:12.246Z,2.03
2023-04-18T17:13:39.845Z,2.00
2023-04-18T17:16:08.010Z,1.90
2023-04-18T17:18:35.529Z,1.88
2023-04-18T17:21:03.359Z,2.15
2023-04-18T17:23:32.789Z,2.03
2023-04-18T17:26:01.004Z,2.17
2023-04-18T17:28:28.369Z,2.35
2023-04-18T17:30:57.513Z,2.30
2023-04-18T17:33:24.839Z,2.40
2023-04-18T17:35:52.358Z,2.80
2023-04-18T17:38:19.821Z,2.88
2023-04-18T17:40:47.340Z,3.92
2023-04-18T17:43:16.391Z,3.70
2023-04-18T17:45:44.105Z,3.10
2023-04-18T17:48:11.551Z,3.50
2023-04-18T17:50:38.916Z,3.20
2023-04-18T17:53:06.367Z,3.85
2023-04-18T17:55:34.055Z,3.20
2023-04-18T17:58:01.438Z,3.00
2023-04-18T18:00:29.136Z,2.95
2023-04-18T18:02:57.282Z,3.55
2023-04-18T18:05:25.821Z,3.53
2023-04-18T18:07:54.553Z,3.15
2023-04-18T18:10:25.209Z,5.85
2023-04-18T18:12:52.590Z,2.67
2023-04-18T18:15:20.698Z,2.83
2023-04-18T18:17:51.591Z,2.63
2023-04-18T18:20:19.569Z,2.87
2023-04-18T18:22:47.435Z,2.50
2023-04-18T18:25:15.008Z,3.10
2023-04-18T18:27:42.404Z,2.80
2023-04-18T18:30:10.557Z,2.53
2023-04-18T18:32:40.289Z,2.70
2023-04-18T18:35:10.825Z,2.83
2023-04-18T18:41:20.572Z,2.92
2023-04-18T18:43:48.054Z,3.20
2023-04-18T18:46:24.178Z,5.30
2023-04-18T18:49:22.786Z,12.40
2023-04-18T18:51:50.251Z,11.18
2023-04-18T18:54:17.671Z,12.40
2023-04-18T18:56:48.299Z,10.88
2023-04-18T18:59:16.632Z,11.90
2023-04-18T19:01:51.134Z,9.68
2023-04-18T19:04:19.078Z,7.15
2023-04-18T19:06:46.440Z,6.35
2023-04-18T19:09:14.834Z,5.93
2023-04-18T19:11:42.892Z,5.32
2023-04-18T19:14:10.277Z,5.63
2023-04-18T19:16:37.915Z,7.28
2023-04-18T19:19:05.419Z,6.38
2023-04-18T19:21:32.758Z,7.97
2023-04-18T19:24:00.374Z,10.90
2023-04-18T19:26:27.722Z,11.45
2023-04-18T19:28:55.158Z,10.60
2023-04-18T19:31:22.768Z,8.43
2023-04-18T19:33:50.660Z,6.55
2023-04-18T19:36:18.974Z,7.03
2023-04-18T19:38:46.525Z,6.68
2023-04-18T19:41:13.945Z,6.80
2023-04-18T19:43:42.521Z,7.32
2023-04-18T19:46:10.017Z,8.35
2023-04-18T19:48:37.656Z,5.68
2023-04-18T19:51:05.192Z,5.55
2023-04-18T19:53:32.670Z,5.40
2023-04-18T19:56:00.246Z,5.63
2023-04-18T19:58:44.838Z,6.18
2023-04-18T20:01:13.204Z,6.45
2023-04-18T20:03:41.177Z,7.15
2023-04-18T20:06:09.029Z,6.40
2023-04-18T20:08:37.306Z,6.57
2023-04-18T20:11:07.170Z,7.85
2023-04-18T20:13:36.577Z,6.60
2023-04-18T20:16:07.459Z,5.38
2023-04-18T20:18:35.970Z,5.10
2023-04-18T20:21:03.661Z,5.15
2023-04-18T20:23:30.997Z,5.97
2023-04-18T20:25:58.357Z,7.05
2023-04-18T20:28:26.129Z,7.70
2023-04-18T20:30:53.489Z,7.80
2023-04-18T20:33:21.918Z,8.40
2023-04-18T20:35:49.654Z,7.35
2023-04-18T20:38:20.596Z,6.20
2023-04-18T20:40:51.474Z,5.43
2023-04-18T20:43:19.418Z,5.50
2023-04-18T20:45:51.129Z,5.35
2023-04-18T20:48:18.820Z,6.78
2023-04-18T20:50:51.152Z,6.32
2023-04-18T20:53:22.565Z,6.57
2023-04-18T20:55:50.219Z,6.13
2023-04-18T20:58:18.010Z,5.55
2023-04-18T21:00:45.373Z,5.05
2023-04-18T21:03:16.283Z,5.45
2023-04-18T21:05:44.255Z,4.75
2023-04-18T21:08:11.665Z,5.10
2023-04-18T21:10:39.671Z,4.38
2023-04-18T21:13:07.173Z,4.45
2023-04-18T21:15:35.751Z,4.65
2023-04-18T21:18:03.165Z,4.50
2023-04-18T21:20:30.653Z,5.00
2023-04-18T21:22:58.001Z,4.80
2023-04-18T21:25:25.371Z,5.13
2023-04-18T21:27:52.697Z,4.18
2023-04-18T21:30:20.959Z,5.03
2023-04-18T21:32:50.616Z,4.95
2023-04-18T21:35:20.131Z,4.90
2023-04-18T21:37:48.782Z,5.15
2023-04-18T21:40:16.090Z,5.20
2023-04-18T21:42:43.560Z,5.50
2023-04-18T21:45:11.266Z,5.72
2023-04-18T21:47:39.628Z,5.50
2023-04-18T21:50:07.447Z,5.15
2023-04-18T21:52:35.668Z,5.45
2023-04-18T21:55:06.023Z,5.47
2023-04-18T21:57:35.011Z,5.90
2023-04-18T22:00:08.491Z,5.50
2023-04-18T22:02:37.845Z,5.22
2023-04-18T22:05:06.480Z,5.40
2023-04-18T22:07:43.263Z,5.80
2023-04-18T22:10:12.219Z,5.50
2023-04-18T22:12:43.122Z,5.30
2023-04-18T22:15:12.886Z,5.65
2023-04-18T22:17:50.918Z,5.43
2023-04-18T22:20:47.795Z,6.00
2023-04-18T22:23:16.516Z,5.80
2023-04-18T22:29:29.493Z,5.35
2023-04-18T22:32:00.848Z,5.30
2023-04-18T22:34:28.823Z,4.78
2023-04-18T22:36:56.629Z,4.78
2023-04-18T22:39:25.992Z,4.97
2023-04-18T22:41:53.956Z,5.20
2023-04-18T22:44:21.453Z,4.18
2023-04-18T22:46:49.527Z,5.10
2023-04-18T22:49:18.192Z,5.22
2023-04-18T22:51:46.377Z,5.97
2023-04-18T22:54:13.874Z,5.95
2023-04-18T22:56:41.802Z,5.32
2023-04-18T22:59:09.093Z,5.05
2023-04-18T23:01:36.481Z,6.30
2023-04-18T23:04:04.069Z,6.55
2023-04-18T23:06:32.403Z,6.25
2023-04-18T23:08:59.733Z,5.72
2023-04-18T23:11:27.070Z,5.60
2023-04-18T23:13:54.406Z,5.75
2023-04-18T23:16:23.061Z,6.18
2023-04-18T23:18:50.548Z,5.53
2023-04-18T23:21:17.955Z,6.40
2023-04-18T23:23:46.195Z,5.65
2023-04-18T23:26:16.972Z,5.25
2023-04-18T23:28:45.487Z,6.72
2023-04-18T23:31:13.709Z,6.63
2023-04-18T23:33:41.150Z,6.15
2023-04-18T23:36:08.684Z,5.30
2023-04-18T23:38:37.252Z,5.57
2023-04-18T23:41:08.090Z,5.93
2023-04-18T23:43:38.902Z,5.88
2023-04-18T23:46:07.433Z,6.20
2023-04-18T23:48:35.649Z,5.85
2023-04-18T23:51:03.400Z,6.22
2023-04-18T23:53:30.830Z,6.05
2023-04-18T23:55:58.169Z,6.45
2023-04-18T23:58:31.763Z,6.07
